createdAt,value
2018-08-22T00:01:38.228Z,34.62
2018-08-22T00:06:57.421Z,34.85
2018-08-22T00:09:36.446Z,35.01
2018-08-22T00:12:04.876Z,35.06
2018-08-22T00:17:23.356Z,35.49
2018-08-22T00:19:52.312Z,35.22
2018-08-22T00:22:37.329Z,35.73
2018-08-22T00:30:46.754Z,35.90
2018-08-22T00:38:56.612Z,35.87
2018-08-22T00:41:24.928Z,36.07
2018-08-22T00:43:53.560Z,36.51
2018-08-22T00:58:18.656Z,37.80
2018-08-22T01:00:46.951Z,37.97
2018-08-22T01:09:07.098Z,37.89
2018-08-22T01:11:35.638Z,37.98
2018-08-22T01:28:17.999Z,38.24
2018-08-22T01:30:46.336Z,38.34
2018-08-22T01:33:14.847Z,37.90
2018-08-22T01:35:43.171Z,37.87
2018-08-22T01:38:11.624Z,37.45
2018-08-22T01:40:40.215Z,37.11
2018-08-22T01:43:09.126Z,36.96
2018-08-22T01:45:37.505Z,37.22
2018-08-22T01:48:05.891Z,37.83
2018-08-22T01:50:34.186Z,37.96
2018-08-22T01:53:02.544Z,38.18
2018-08-22T01:55:30.921Z,37.87
2018-08-22T01:57:59.271Z,37.89
2018-08-22T02:00:27.760Z,38.60
2018-08-22T02:05:49.959Z,38.78
2018-08-22T02:16:56.463Z,39.73
2018-08-22T02:19:24.908Z,39.60
2018-08-22T02:21:53.270Z,39.88
2018-08-22T02:27:12.199Z,39.84
2018-08-22T02:29:40.540Z,39.93
2018-08-22T02:32:08.889Z,39.83
2018-08-22T02:34:37.264Z,40.80
2018-08-22T02:37:05.622Z,40.66
2018-08-22T02:42:24.595Z,40.78
2018-08-22T02:47:43.534Z,40.86
2018-08-22T02:50:11.898Z,40.79
2018-08-22T02:52:40.244Z,41.67
2018-08-22T02:58:00.418Z,41.59
2018-08-22T03:06:09.837Z,41.57
2018-08-22T03:08:38.183Z,42.20
2018-08-22T03:11:06.608Z,41.49
2018-08-22T03:13:34.925Z,41.26
2018-08-22T03:16:03.264Z,41.46
2018-08-22T03:18:32.525Z,41.57
2018-08-22T03:21:00.909Z,41.08
2018-08-22T03:23:29.382Z,41.96
2018-08-22T03:25:57.767Z,41.15
2018-08-22T03:28:26.041Z,41.12
2018-08-22T03:30:54.384Z,41.56
2018-08-22T03:39:07.456Z,41.19
2018-08-22T03:41:35.816Z,41.57
2018-08-22T03:44:04.143Z,41.89
2018-08-22T03:46:32.464Z,42.12
2018-08-22T03:49:00.803Z,42.71
2018-08-22T03:51:29.184Z,42.44
2018-08-22T03:53:57.555Z,42.48
2018-08-22T03:56:25.907Z,42.71
2018-08-22T04:01:43.858Z,41.77
2018-08-22T04:04:12.277Z,41.50
2018-08-22T04:12:22.456Z,41.80
2018-08-22T04:17:47.274Z,42.56
2018-08-22T04:20:15.845Z,43.46
2018-08-22T04:22:44.225Z,43.06
2018-08-22T04:25:12.729Z,42.65
2018-08-22T04:27:41.114Z,42.81
2018-08-22T04:30:09.583Z,43.52
2018-08-22T04:35:28.461Z,43.11
2018-08-22T04:37:58.013Z,42.64
2018-08-22T04:43:17.112Z,43.30
2018-08-22T04:45:45.611Z,42.90
2018-08-22T04:48:14.040Z,43.07
2018-08-22T04:56:23.845Z,42.67
2018-08-22T04:58:53.798Z,42.89
2018-08-22T05:01:22.270Z,42.34
2018-08-22T05:03:50.851Z,42.52
2018-08-22T05:06:19.311Z,42.00
2018-08-22T05:08:47.739Z,41.99
2018-08-22T05:19:48.559Z,41.01
2018-08-22T05:22:18.266Z,41.10
2018-08-22T05:24:46.730Z,41.46
2018-08-22T05:32:55.981Z,39.61
2018-08-22T05:35:24.611Z,40.04
2018-08-22T05:37:52.916Z,40.35
2018-08-22T05:46:03.341Z,39.89
2018-08-22T06:05:40.033Z,38.47
2018-08-22T06:08:08.372Z,38.12
2018-08-22T06:10:36.737Z,37.68
2018-08-22T06:13:05.129Z,37.46
2018-08-22T06:15:46.960Z,37.58
2018-08-22T06:21:07.299Z,37.01
2018-08-22T06:23:35.695Z,35.69
2018-08-22T06:26:04.194Z,35.78
2018-08-22T06:34:13.746Z,34.58
2018-08-22T06:45:15.043Z,34.51
2018-08-22T06:47:43.413Z,34.62
2018-08-22T06:50:11.945Z,33.04
2018-08-22T06:52:40.259Z,32.96
2018-08-22T06:55:08.645Z,33.48
2018-08-22T06:57:36.933Z,33.61
2018-08-22T07:02:56.484Z,32.99
2018-08-22T07:05:36.535Z,32.02
2018-08-22T07:08:05.476Z,32.00
2018-08-22T07:10:33.879Z,31.90
2018-08-22T07:13:02.228Z,31.97
2018-08-22T07:21:12.615Z,31.46
2018-08-22T07:23:41.051Z,31.11
2018-08-22T07:26:09.358Z,31.26
2018-08-22T07:28:37.735Z,30.79
2018-08-22T07:31:06.109Z,31.11
2018-08-22T07:33:34.521Z,29.74
2018-08-22T07:36:02.949Z,29.60
2018-08-22T07:38:31.307Z,30.14
2018-08-22T07:40:59.734Z,29.80
2018-08-22T07:43:28.226Z,29.56
2018-08-22T07:45:56.680Z,29.62
2018-08-22T07:59:49.319Z,28.91
2018-08-22T08:02:17.699Z,28.08
2018-08-22T08:07:36.461Z,27.69
2018-08-22T08:10:04.959Z,27.85
2018-08-22T08:38:09.369Z,26.09
2018-08-22T08:40:37.876Z,25.54
2018-08-22T08:43:06.479Z,24.87
2018-08-22T08:45:34.838Z,25.76
2018-08-22T08:48:03.148Z,25.06
2018-08-22T08:50:31.480Z,25.38
2018-08-22T08:52:59.818Z,23.97
2018-08-22T08:58:46.575Z,23.46
2018-08-22T09:04:20.925Z,22.62
2018-08-22T09:06:50.040Z,24.21
2018-08-22T09:09:18.633Z,23.09
2018-08-22T09:12:04.496Z,23.92
2018-08-22T09:14:32.834Z,22.28
2018-08-22T09:17:01.189Z,22.59
2018-08-22T09:19:29.597Z,24.16
2018-08-22T09:21:57.944Z,22.60
2018-08-22T09:24:26.328Z,22.92
2018-08-22T09:35:27.259Z,22.60
2018-08-22T09:37:55.649Z,22.35
2018-08-22T09:40:24.175Z,22.33
2018-08-22T09:45:42.878Z,23.61
2018-08-22T09:48:11.485Z,23.34
2018-08-22T09:50:39.863Z,22.93
2018-08-22T09:53:08.219Z,22.72
2018-08-22T09:55:36.551Z,22.83
2018-08-22T09:58:05.007Z,22.48
2018-08-22T10:00:38.728Z,22.43
2018-08-22T10:03:07.110Z,22.60
2018-08-22T10:05:35.497Z,22.46
2018-08-22T10:08:03.891Z,22.63
2018-08-22T10:10:32.351Z,21.78
2018-08-22T10:13:00.646Z,22.17
2018-08-22T10:15:29.187Z,22.52
2018-08-22T10:17:57.602Z,23.80
2018-08-22T10:20:26.045Z,22.74
2018-08-22T10:22:54.459Z,23.02
2018-08-22T10:25:22.829Z,22.91
2018-08-22T10:27:51.202Z,22.87
2018-08-22T10:30:19.509Z,21.55
2018-08-22T10:32:47.836Z,21.79
2018-08-22T10:35:16.174Z,21.37
2018-08-22T10:37:44.537Z,21.16
2018-08-22T10:40:12.893Z,21.55
2018-08-22T10:42:41.207Z,21.38
2018-08-22T10:45:09.717Z,21.57
2018-08-22T10:47:38.133Z,20.92
2018-08-22T10:50:06.549Z,20.65
2018-08-22T10:52:35.266Z,20.52
2018-08-22T10:55:03.646Z,19.75
2018-08-22T10:57:32.073Z,20.94
2018-08-22T11:00:00.464Z,21.08
2018-08-22T11:02:28.792Z,20.15
2018-08-22T11:04:57.296Z,20.47
2018-08-22T11:07:25.687Z,20.24
2018-08-22T11:10:00.064Z,21.41
2018-08-22T11:12:28.442Z,20.57
2018-08-22T11:14:56.884Z,20.48
2018-08-22T11:17:25.409Z,20.21
2018-08-22T11:19:53.741Z,20.39
2018-08-22T11:28:14.981Z,20.12
2018-08-22T11:33:45.312Z,19.49
2018-08-22T11:39:06.807Z,19.64
2018-08-22T11:52:57.556Z,16.25
2018-08-22T12:01:09.183Z,13.87
2018-08-22T12:11:05.428Z,10.95
2018-08-22T12:19:15.165Z,8.81
2018-08-22T12:21:43.657Z,8.84
2018-08-22T12:24:12.139Z,7.97
2018-08-22T12:26:51.747Z,7.79
2018-08-22T12:32:10.495Z,9.17
2018-08-22T12:34:38.866Z,10.20
2018-08-22T12:42:48.698Z,10.45
2018-08-22T12:48:07.359Z,8.92
2018-08-22T12:53:26.633Z,12.56
2018-08-22T12:55:54.916Z,13.67
2018-08-22T12:58:23.304Z,13.21
2018-08-22T13:00:51.632Z,13.60
2018-08-22T13:03:20.159Z,13.61
2018-08-22T13:05:48.520Z,14.17
2018-08-22T13:08:16.869Z,13.82
2018-08-22T13:10:45.189Z,14.46
2018-08-22T13:13:13.507Z,14.49
2018-08-22T13:15:42.032Z,13.51
2018-08-22T13:18:10.402Z,13.16
2018-08-22T13:20:38.701Z,13.53
2018-08-22T13:23:07.606Z,14.22
2018-08-22T13:25:35.962Z,13.65
2018-08-22T13:28:04.348Z,13.68
2018-08-22T13:30:32.798Z,14.70
2018-08-22T13:33:01.057Z,14.99
2018-08-22T13:35:29.409Z,15.19
2018-08-22T13:37:57.746Z,14.30
2018-08-22T13:40:26.148Z,11.72
2018-08-22T13:42:54.546Z,10.57
2018-08-22T13:45:22.930Z,9.28
2018-08-22T13:47:51.255Z,9.26
2018-08-22T13:50:19.606Z,8.03
2018-08-22T13:52:48.033Z,7.08
2018-08-22T13:55:16.419Z,7.20
2018-08-22T13:57:44.799Z,6.61
2018-08-22T14:00:13.161Z,5.90
2018-08-22T14:02:41.515Z,5.48
2018-08-22T14:05:10.002Z,5.39
2018-08-22T14:10:29.516Z,6.50
2018-08-22T14:12:57.861Z,6.19
2018-08-22T14:21:16.431Z,5.55
2018-08-22T14:23:44.775Z,6.93
2018-08-22T14:26:13.205Z,7.63
2018-08-22T14:28:41.539Z,8.05
2018-08-22T14:31:11.180Z,6.64
2018-08-22T14:36:30.066Z,5.66
2018-08-22T14:38:58.751Z,5.44
2018-08-22T14:41:27.120Z,5.33
2018-08-22T14:43:55.481Z,5.15
2018-08-22T14:46:23.905Z,5.86
2018-08-22T14:48:52.226Z,6.29
2018-08-22T14:51:20.576Z,5.53
2018-08-22T14:53:48.985Z,7.59
2018-08-22T14:56:17.624Z,9.36
2018-08-22T15:04:30.632Z,13.83
2018-08-22T15:06:59.014Z,14.21
2018-08-22T15:09:27.325Z,13.74
2018-08-22T15:11:55.641Z,14.79
2018-08-22T15:17:15.345Z,15.06
2018-08-22T15:19:43.684Z,15.61
2018-08-22T15:22:12.048Z,16.51
2018-08-22T15:24:40.417Z,16.74
2018-08-22T15:27:09.299Z,17.40
2018-08-22T15:29:37.747Z,17.17
2018-08-22T15:32:06.255Z,16.91
2018-08-22T15:34:45.839Z,17.50
2018-08-22T15:37:14.599Z,18.71
2018-08-22T15:39:43.037Z,18.55
2018-08-22T15:42:11.471Z,18.76
2018-08-22T15:44:39.854Z,18.55
2018-08-22T15:47:08.259Z,19.46
2018-08-22T15:49:36.603Z,20.56
2018-08-22T15:55:09.331Z,23.15
2018-08-22T15:57:50.066Z,24.65
2018-08-22T16:00:38.826Z,25.85
2018-08-22T16:03:08.368Z,26.83
2018-08-22T16:05:37.586Z,26.72
2018-08-22T16:08:06.329Z,26.49
2018-08-22T16:10:34.637Z,26.99
2018-08-22T16:13:03.203Z,27.20
2018-08-22T16:15:35.925Z,28.09
2018-08-22T16:18:09.036Z,28.04
2018-08-22T16:20:46.461Z,28.28
2018-08-22T16:23:14.861Z,28.40
2018-08-22T16:25:47.617Z,28.45
2018-08-22T16:28:15.993Z,27.41
2018-08-22T16:30:56.659Z,27.05
2018-08-22T16:33:12.790Z,27.52
2018-08-22T16:35:41.102Z,27.40
2018-08-22T16:38:14.320Z,26.77
2018-08-22T16:40:49.212Z,26.32
2018-08-22T16:43:34.392Z,25.46
2018-08-22T16:46:04.020Z,25.54
2018-08-22T16:48:32.460Z,24.90
2018-08-22T16:51:00.807Z,24.89
2018-08-22T16:53:29.164Z,25.35
2018-08-22T16:55:57.620Z,25.32
2018-08-22T16:58:25.939Z,25.97
2018-08-22T17:00:54.266Z,25.84
2018-08-22T17:03:22.751Z,27.78
2018-08-22T17:05:54.872Z,27.43
2018-08-22T17:08:23.228Z,27.02
2018-08-22T17:11:01.535Z,24.82
2018-08-22T17:13:43.238Z,23.75
2018-08-22T17:16:11.592Z,25.22
2018-08-22T17:18:40.358Z,24.94
2018-08-22T17:21:09.088Z,25.60
2018-08-22T17:23:37.642Z,24.95
2018-08-22T17:26:09.943Z,25.05
2018-08-22T17:28:39.774Z,23.80
2018-08-22T17:31:08.537Z,24.42
2018-08-22T17:33:39.308Z,24.92
2018-08-22T17:36:08.649Z,25.09
2018-08-22T17:38:37.069Z,24.20
2018-08-22T17:41:05.961Z,25.08
2018-08-22T17:43:49.742Z,24.99
2018-08-22T17:46:18.117Z,24.39
2018-08-22T17:48:46.423Z,24.70
2018-08-22T17:51:14.797Z,24.24
2018-08-22T17:53:43.297Z,25.84
2018-08-22T17:56:11.739Z,26.23
2018-08-22T17:58:40.141Z,26.63
2018-08-22T18:01:08.497Z,26.76
2018-08-22T18:03:43.413Z,26.74
2018-08-22T18:06:11.786Z,26.68
2018-08-22T18:08:40.172Z,27.02
2018-08-22T18:11:08.550Z,28.04
2018-08-22T18:13:36.912Z,27.70
2018-08-22T18:16:05.232Z,27.93
2018-08-22T18:18:33.644Z,28.33
2018-08-22T18:21:02.266Z,28.95
2018-08-22T18:23:30.640Z,29.21
2018-08-22T18:26:02.068Z,29.63
2018-08-22T18:28:30.489Z,29.18
2018-08-22T18:30:58.791Z,29.50
2018-08-22T18:33:27.127Z,29.95
2018-08-22T18:35:55.501Z,29.26
2018-08-22T18:38:23.924Z,30.28
2018-08-22T18:41:03.515Z,31.07
2018-08-22T18:43:31.893Z,30.63
2018-08-22T18:46:06.343Z,30.71
2018-08-22T18:48:35.889Z,31.50
2018-08-22T18:51:04.787Z,32.19
2018-08-22T18:53:33.238Z,32.85
2018-08-22T18:56:12.622Z,34.06
2018-08-22T18:58:41.169Z,34.06
2018-08-22T19:01:09.527Z,33.76
2018-08-22T19:03:43.008Z,34.44
2018-08-22T19:11:52.712Z,35.49
2018-08-22T19:14:33.249Z,35.33
2018-08-22T19:19:52.587Z,34.37
2018-08-22T19:22:21.115Z,33.85
2018-08-22T19:25:06.150Z,34.91
2018-08-22T19:30:25.243Z,34.38
2018-08-22T19:35:44.867Z,35.54
2018-08-22T19:41:19.838Z,36.42
2018-08-22T19:43:48.776Z,36.36
2018-08-22T19:46:17.117Z,37.31
2018-08-22T19:48:45.481Z,37.02
2018-08-22T19:51:13.920Z,37.41
2018-08-22T19:53:54.091Z,38.18
2018-08-22T19:59:15.532Z,38.00
2018-08-22T20:01:56.190Z,38.78
2018-08-22T20:04:24.585Z,39.15
2018-08-22T20:06:52.919Z,38.57
2018-08-22T20:09:21.933Z,38.43
2018-08-22T20:14:49.277Z,39.65
2018-08-22T20:17:23.765Z,40.00
2018-08-22T20:19:52.109Z,40.73
2018-08-22T20:22:26.012Z,40.88
2018-08-22T20:24:56.867Z,40.30
2018-08-22T20:27:25.706Z,40.64
2018-08-22T20:29:58.218Z,40.81
2018-08-22T20:32:31.238Z,41.68
2018-08-22T20:35:00.901Z,40.72
2018-08-22T20:37:29.411Z,41.43
2018-08-22T20:40:02.910Z,40.02
2018-08-22T20:42:31.312Z,41.78
2018-08-22T20:44:59.612Z,41.16
2018-08-22T20:47:27.994Z,41.47
2018-08-22T20:49:56.733Z,41.41
2018-08-22T20:52:25.245Z,40.86
2018-08-22T20:54:58.799Z,41.45
2018-08-22T20:57:27.230Z,40.41
2018-08-22T20:59:55.579Z,40.94
2018-08-22T21:02:24.081Z,40.61
2018-08-22T21:04:52.401Z,40.37
2018-08-22T21:07:25.423Z,40.06
2018-08-22T21:09:53.856Z,39.43
2018-08-22T21:12:22.299Z,39.51
2018-08-22T21:14:50.815Z,40.00
2018-08-22T21:17:19.168Z,40.13
2018-08-22T21:22:38.291Z,39.86
2018-08-22T21:30:53.002Z,40.99
2018-08-22T21:33:21.535Z,40.66
2018-08-22T21:50:02.943Z,41.75
2018-08-22T21:52:55.431Z,41.39
2018-08-22T21:55:29.143Z,42.18
2018-08-22T21:57:57.569Z,41.62
2018-08-22T22:00:28.463Z,41.87
2018-08-22T22:02:57.342Z,41.52
2018-08-22T22:05:36.931Z,41.51
2018-08-22T22:08:05.745Z,40.83
2018-08-22T22:10:34.124Z,40.99
2018-08-22T22:13:02.626Z,41.70
2018-08-22T22:18:21.440Z,42.17
2018-08-22T22:20:52.823Z,41.43
2018-08-22T22:23:21.144Z,41.70
2018-08-22T22:25:49.521Z,42.17
2018-08-22T22:28:18.764Z,41.58
2018-08-22T22:30:47.137Z,42.21
2018-08-22T22:33:15.588Z,42.83
2018-08-22T22:35:43.953Z,42.95
2018-08-22T22:38:12.423Z,42.42
2018-08-22T22:40:41.520Z,42.43
2018-08-22T22:43:11.907Z,42.98
2018-08-22T22:45:40.809Z,42.53
2018-08-22T22:48:09.432Z,42.83
2018-08-22T22:50:37.812Z,42.46
2018-08-22T22:53:07.314Z,42.50
2018-08-22T22:55:35.715Z,42.17
2018-08-22T22:58:04.351Z,42.48
2018-08-22T23:00:33.032Z,42.10
2018-08-22T23:03:06.315Z,42.48
2018-08-22T23:05:34.714Z,42.61
2018-08-22T23:08:03.563Z,42.74
2018-08-22T23:10:32.289Z,42.75
2018-08-22T23:18:58.164Z,42.55
2018-08-22T23:21:26.521Z,42.93
2018-08-22T23:23:54.878Z,42.42
2018-08-22T23:26:23.201Z,42.48
2018-08-22T23:28:51.663Z,42.33
2018-08-22T23:31:20.837Z,42.45
2018-08-22T23:33:49.397Z,41.90
2018-08-22T23:36:17.905Z,43.56
2018-08-22T23:38:46.442Z,43.10
2018-08-22T23:41:14.822Z,43.27
2018-08-22T23:43:50.437Z,43.34
2018-08-22T23:46:19.005Z,43.45
2018-08-22T23:48:53.609Z,43.75
2018-08-22T23:51:22.095Z,43.42
2018-08-22T23:53:50.404Z,43.83
2018-08-22T23:56:24.892Z,44.08
2018-08-22T23:58:54.044Z,43.82
